sensor_id;sensor_type;location;lat;lon;timestamp;P1;durP1;ratioP1;P2;durP2;ratioP2
68655;SDS011;55638;51.122;13.606;2022-07-23T00:00:58;1.38;;;1.27;;
68655;SDS011;55638;51.122;13.606;2022-07-23T00:02:30;2.15;;;1.50;;
68655;SDS011;55638;51.122;13.606;2022-07-23T00:04:02;1.92;;;1.70;;
68655;SDS011;55638;51.122;13.606;2022-07-23T00:05:34;2.80;;;2.03;;
68655;SDS011;55638;51.122;13.606;2022-07-23T00:07:08;1.55;;;1.45;;
68655;SDS011;55638;51.122;13.606;2022-07-23T00:08:40;2.80;;;2.15;;
68655;SDS011;55638;51.122;13.606;2022-07-23T00:10:12;1.50;;;1.40;;
68655;SDS011;55638;51.122;13.606;2022-07-23T00:11:44;1.98;;;1.50;;
68655;SDS011;55638;51.122;13.606;2022-07-23T00:13:15;1.70;;;1.60;;
68655;SDS011;55638;51.122;13.606;2022-07-23T00:14:47;1.58;;;1.48;;
68655;SDS011;55638;51.122;13.606;2022-07-23T00:16:18;1.60;;;1.50;;
68655;SDS011;55638;51.122;13.606;2022-07-23T00:17:51;2.47;;;1.40;;
68655;SDS011;55638;51.122;13.606;2022-07-23T00:19:23;1.67;;;1.58;;
68655;SDS011;55638;51.122;13.606;2022-07-23T00:20:55;1.73;;;1.60;;
68655;SDS011;55638;51.122;13.606;2022-07-23T00:22:27;1.83;;;1.73;;
68655;SDS011;55638;51.122;13.606;2022-07-23T00:24:00;1.48;;;1.38;;
68655;SDS011;55638;51.122;13.606;2022-07-23T00:25:32;2.33;;;1.52;;
68655;SDS011;55638;51.122;13.606;2022-07-23T00:27:03;1.58;;;1.48;;
68655;SDS011;55638;51.122;13.606;2022-07-23T00:28:35;2.65;;;1.77;;
68655;SDS011;55638;51.122;13.606;2022-07-23T00:30:07;1.60;;;1.50;;
68655;SDS011;55638;51.122;13.606;2022-07-23T00:31:39;2.33;;;1.58;;
68655;SDS011;55638;51.122;13.606;2022-07-23T00:33:10;1.85;;;1.75;;
68655;SDS011;55638;51.122;13.606;2022-07-23T00:34:42;1.70;;;1.60;;
68655;SDS011;55638;51.122;13.606;2022-07-23T00:36:14;2.33;;;1.60;;
68655;SDS011;55638;51.122;13.606;2022-07-23T00:37:46;1.77;;;1.67;;
68655;SDS011;55638;51.122;13.606;2022-07-23T00:39:18;2.03;;;1.70;;
68655;SDS011;55638;51.122;13.606;2022-07-23T00:40:49;2.10;;;1.88;;
68655;SDS011;55638;51.122;13.606;2022-07-23T00:42:21;1.63;;;1.52;;
68655;SDS011;55638;51.122;13.606;2022-07-23T00:43:53;1.90;;;1.80;;
68655;SDS011;55638;51.122;13.606;2022-07-23T00:45:24;1.60;;;1.50;;
68655;SDS011;55638;51.122;13.606;2022-07-23T00:46:57;2.00;;;1.90;;
68655;SDS011;55638;51.122;13.606;2022-07-23T00:48:30;2.15;;;1.90;;
68655;SDS011;55638;51.122;13.606;2022-07-23T00:50:03;1.80;;;1.55;;
68655;SDS011;55638;51.122;13.606;2022-07-23T00:51:35;1.95;;;1.77;;
68655;SDS011;55638;51.122;13.606;2022-07-23T00:53:07;2.20;;;2.00;;
68655;SDS011;55638;51.122;13.606;2022-07-23T00:54:39;1.73;;;1.63;;
68655;SDS011;55638;51.122;13.606;2022-07-23T00:56:11;1.83;;;1.73;;
68655;SDS011;55638;51.122;13.606;2022-07-23T00:57:43;2.45;;;1.90;;
68655;SDS011;55638;51.122;13.606;2022-07-23T00:59:15;1.67;;;1.58;;
68655;SDS011;55638;51.122;13.606;2022-07-23T01:00:47;2.00;;;1.90;;
68655;SDS011;55638;51.122;13.606;2022-07-23T01:02:19;2.08;;;1.88;;
68655;SDS011;55638;51.122;13.606;2022-07-23T01:03:50;2.10;;;1.90;;
68655;SDS011;55638;51.122;13.606;2022-07-23T01:05:22;1.80;;;1.70;;
68655;SDS011;55638;51.122;13.606;2022-07-23T01:06:54;3.58;;;1.90;;
68655;SDS011;55638;51.122;13.606;2022-07-23T01:08:26;2.00;;;1.80;;
68655;SDS011;55638;51.122;13.606;2022-07-23T01:09:58;1.80;;;1.70;;
68655;SDS011;55638;51.122;13.606;2022-07-23T01:11:34;1.58;;;1.48;;
68655;SDS011;55638;51.122;13.606;2022-07-23T01:13:10;2.17;;;1.98;;
68655;SDS011;55638;51.122;13.606;2022-07-23T01:14:42;1.75;;;1.65;;
68655;SDS011;55638;51.122;13.606;2022-07-23T01:16:14;1.80;;;1.70;;
68655;SDS011;55638;51.122;13.606;2022-07-23T01:17:46;2.38;;;2.17;;
68655;SDS011;55638;51.122;13.606;2022-07-23T01:19:19;2.17;;;1.98;;
68655;SDS011;55638;51.122;13.606;2022-07-23T01:20:51;1.88;;;1.77;;
68655;SDS011;55638;51.122;13.606;2022-07-23T01:22:23;2.28;;;2.08;;
68655;SDS011;55638;51.122;13.606;2022-07-23T01:23:55;2.15;;;1.95;;
68655;SDS011;55638;51.122;13.606;2022-07-23T01:25:27;1.90;;;1.80;;
68655;SDS011;55638;51.122;13.606;2022-07-23T01:27:02;1.95;;;1.85;;
68655;SDS011;55638;51.122;13.606;2022-07-23T01:28:35;1.90;;;1.80;;
68655;SDS011;55638;51.122;13.606;2022-07-23T01:30:07;2.10;;;1.80;;
68655;SDS011;55638;51.122;13.606;2022-07-23T01:31:39;2.25;;;2.10;;
68655;SDS011;55638;51.122;13.606;2022-07-23T01:33:11;3.42;;;1.90;;
68655;SDS011;55638;51.122;13.606;2022-07-23T01:34:43;2.00;;;1.90;;
68655;SDS011;55638;51.122;13.606;2022-07-23T01:36:16;2.10;;;2.00;;
68655;SDS011;55638;51.122;13.606;2022-07-23T01:37:47;2.05;;;1.90;;
68655;SDS011;55638;51.122;13.606;2022-07-23T01:39:20;2.08;;;1.95;;
68655;SDS011;55638;51.122;13.606;2022-07-23T01:40:55;2.38;;;2.17;;
68655;SDS011;55638;51.122;13.606;2022-07-23T01:42:33;2.28;;;2.08;;
68655;SDS011;55638;51.122;13.606;2022-07-23T01:44:06;2.33;;;2.13;;
68655;SDS011;55638;51.122;13.606;2022-07-23T01:45:38;2.30;;;2.00;;
68655;SDS011;55638;51.122;13.606;2022-07-23T01:47:10;2.30;;;2.10;;
68655;SDS011;55638;51.122;13.606;2022-07-23T01:48:42;1.60;;;1.50;;
68655;SDS011;55638;51.122;13.606;2022-07-23T01:50:26;1.73;;;1.63;;
68655;SDS011;55638;51.122;13.606;2022-07-23T01:52:14;1.85;;;1.75;;
68655;SDS011;55638;51.122;13.606;2022-07-23T01:53:49;1.83;;;1.73;;
68655;SDS011;55638;51.122;13.606;2022-07-23T01:55:20;1.85;;;1.75;;
68655;SDS011;55638;51.122;13.606;2022-07-23T01:56:53;1.98;;;1.77;;
68655;SDS011;55638;51.122;13.606;2022-07-23T01:58:25;1.92;;;1.83;;
68655;SDS011;55638;51.122;13.606;2022-07-23T01:59:58;1.88;;;1.77;;
68655;SDS011;55638;51.122;13.606;2022-07-23T02:01:30;1.75;;;1.65;;
68655;SDS011;55638;51.122;13.606;2022-07-23T02:03:01;1.88;;;1.77;;
68655;SDS011;55638;51.122;13.606;2022-07-23T02:04:33;1.75;;;1.65;;
68655;SDS011;55638;51.122;13.606;2022-07-23T02:06:08;1.88;;;1.77;;
68655;SDS011;55638;51.122;13.606;2022-07-23T02:07:39;2.22;;;2.03;;
68655;SDS011;55638;51.122;13.606;2022-07-23T02:09:11;2.13;;;2.00;;
68655;SDS011;55638;51.122;13.606;2022-07-23T02:10:43;2.08;;;1.98;;
68655;SDS011;55638;51.122;13.606;2022-07-23T02:12:15;2.30;;;2.10;;
68655;SDS011;55638;51.122;13.606;2022-07-23T02:13:48;2.05;;;1.90;;
68655;SDS011;55638;51.122;13.606;2022-07-23T02:15:20;2.28;;;1.90;;
68655;SDS011;55638;51.122;13.606;2022-07-23T02:16:52;2.00;;;1.80;;
68655;SDS011;55638;51.122;13.606;2022-07-23T02:18:24;2.13;;;1.70;;
68655;SDS011;55638;51.122;13.606;2022-07-23T02:19:56;2.08;;;1.65;;
68655;SDS011;55638;51.122;13.606;2022-07-23T02:21:27;1.95;;;1.85;;
68655;SDS011;55638;51.122;13.606;2022-07-23T02:22:59;1.80;;;1.70;;
68655;SDS011;55638;51.122;13.606;2022-07-23T02:24:31;1.98;;;1.88;;
68655;SDS011;55638;51.122;13.606;2022-07-23T02:26:03;2.30;;;2.10;;
68655;SDS011;55638;51.122;13.606;2022-07-23T02:27:35;1.80;;;1.70;;
68655;SDS011;55638;51.122;13.606;2022-07-23T02:29:09;2.05;;;1.95;;
68655;SDS011;55638;51.122;13.606;2022-07-23T02:30:41;2.10;;;1.90;;
68655;SDS011;55638;51.122;13.606;2022-07-23T02:32:14;2.13;;;1.92;;
68655;SDS011;55638;51.122;13.606;2022-07-23T02:33:48;1.80;;;1.70;;
68655;SDS011;55638;51.122;13.606;2022-07-23T02:35:21;1.95;;;1.85;;
68655;SDS011;55638;51.122;13.606;2022-07-23T02:36:53;2.30;;;1.80;;
68655;SDS011;55638;51.122;13.606;2022-07-23T02:38:26;2.08;;;1.88;;
68655;SDS011;55638;51.122;13.606;2022-07-23T02:39:57;2.08;;;1.98;;
68655;SDS011;55638;51.122;13.606;2022-07-23T02:41:29;2.60;;;2.40;;
68655;SDS011;55638;51.122;13.606;2022-07-23T02:43:01;2.38;;;2.20;;
68655;SDS011;55638;51.122;13.606;2022-07-23T02:44:33;2.10;;;1.90;;
68655;SDS011;55638;51.122;13.606;2022-07-23T02:46:08;1.90;;;1.80;;
68655;SDS011;55638;51.122;13.606;2022-07-23T02:47:39;2.30;;;1.80;;
68655;SDS011;55638;51.122;13.606;2022-07-23T02:49:11;2.00;;;1.90;;
68655;SDS011;55638;51.122;13.606;2022-07-23T02:50:43;1.80;;;1.70;;
68655;SDS011;55638;51.122;13.606;2022-07-23T02:52:17;2.20;;;2.00;;
68655;SDS011;55638;51.122;13.606;2022-07-23T02:53:49;2.55;;;1.80;;
68655;SDS011;55638;51.122;13.606;2022-07-23T02:55:21;2.33;;;2.00;;
68655;SDS011;55638;51.122;13.606;2022-07-23T02:56:53;1.95;;;1.75;;
68655;SDS011;55638;51.122;13.606;2022-07-23T02:58:24;1.85;;;1.75;;
68655;SDS011;55638;51.122;13.606;2022-07-23T02:59:57;1.90;;;1.80;;
68655;SDS011;55638;51.122;13.606;2022-07-23T03:01:29;2.30;;;2.10;;
68655;SDS011;55638;51.122;13.606;2022-07-23T03:03:01;1.90;;;1.80;;
68655;SDS011;55638;51.122;13.606;2022-07-23T03:04:33;2.00;;;1.90;;
68655;SDS011;55638;51.122;13.606;2022-07-23T03:06:04;1.80;;;1.70;;
68655;SDS011;55638;51.122;13.606;2022-07-23T03:07:36;2.28;;;2.08;;
68655;SDS011;55638;51.122;13.606;2022-07-23T03:09:09;2.10;;;2.00;;
68655;SDS011;55638;51.122;13.606;2022-07-23T03:10:42;1.95;;;1.85;;
68655;SDS011;55638;51.122;13.606;2022-07-23T03:12:14;2.00;;;1.90;;
68655;SDS011;55638;51.122;13.606;2022-07-23T03:13:46;2.10;;;1.90;;
68655;SDS011;55638;51.122;13.606;2022-07-23T03:15:18;2.53;;;1.98;;
68655;SDS011;55638;51.122;13.606;2022-07-23T03:16:50;2.40;;;2.20;;
68655;SDS011;55638;51.122;13.606;2022-07-23T03:18:24;2.00;;;1.90;;
68655;SDS011;55638;51.122;13.606;2022-07-23T03:19:56;2.10;;;1.92;;
68655;SDS011;55638;51.122;13.606;2022-07-23T03:21:28;2.30;;;2.10;;
68655;SDS011;55638;51.122;13.606;2022-07-23T03:22:59;1.80;;;1.70;;
68655;SDS011;55638;51.122;13.606;2022-07-23T03:24:34;1.92;;;1.83;;
68655;SDS011;55638;51.122;13.606;2022-07-23T03:26:27;2.13;;;2.03;;
68655;SDS011;55638;51.122;13.606;2022-07-23T03:27:59;1.90;;;1.80;;
68655;SDS011;55638;51.122;13.606;2022-07-23T03:29:32;2.03;;;1.83;;
68655;SDS011;55638;51.122;13.606;2022-07-23T03:31:04;2.40;;;2.20;;
68655;SDS011;55638;51.122;13.606;2022-07-23T03:32:36;2.22;;;2.03;;
68655;SDS011;55638;51.122;13.606;2022-07-23T03:34:07;2.30;;;2.10;;
68655;SDS011;55638;51.122;13.606;2022-07-23T03:35:39;2.03;;;1.92;;
68655;SDS011;55638;51.122;13.606;2022-07-23T03:37:20;2.30;;;1.90;;
68655;SDS011;55638;51.122;13.606;2022-07-23T03:38:52;2.00;;;1.80;;
68655;SDS011;55638;51.122;13.606;2022-07-23T03:40:24;3.05;;;1.92;;
68655;SDS011;55638;51.122;13.606;2022-07-23T03:41:56;2.10;;;1.92;;
68655;SDS011;55638;51.122;13.606;2022-07-23T03:43:27;2.00;;;1.90;;
68655;SDS011;55638;51.122;13.606;2022-07-23T03:44:59;1.98;;;1.85;;
68655;SDS011;55638;51.122;13.606;2022-07-23T03:46:31;2.65;;;2.00;;
68655;SDS011;55638;51.122;13.606;2022-07-23T03:48:03;1.98;;;1.88;;
68655;SDS011;55638;51.122;13.606;2022-07-23T03:49:34;2.60;;;2.40;;
68655;SDS011;55638;51.122;13.606;2022-07-23T03:51:06;3.75;;;1.90;;
68655;SDS011;55638;51.122;13.606;2022-07-23T03:52:39;2.22;;;2.03;;
68655;SDS011;55638;51.122;13.606;2022-07-23T03:54:10;2.20;;;2.00;;
68655;SDS011;55638;51.122;13.606;2022-07-23T03:55:42;2.05;;;1.85;;
68655;SDS011;55638;51.122;13.606;2022-07-23T03:57:14;2.47;;;2.28;;
68655;SDS011;55638;51.122;13.606;2022-07-23T03:58:46;2.35;;;2.15;;
68655;SDS011;55638;51.122;13.606;2022-07-23T04:00:17;2.65;;;2.45;;
68655;SDS011;55638;51.122;13.606;2022-07-23T04:01:53;2.50;;;2.30;;
68655;SDS011;55638;51.122;13.606;2022-07-23T04:03:25;2.60;;;2.40;;
68655;SDS011;55638;51.122;13.606;2022-07-23T04:04:56;3.10;;;2.30;;
68655;SDS011;55638;51.122;13.606;2022-07-23T04:06:28;2.45;;;2.25;;
68655;SDS011;55638;51.122;13.606;2022-07-23T04:08:01;2.55;;;2.35;;
68655;SDS011;55638;51.122;13.606;2022-07-23T04:09:33;2.90;;;2.28;;
68655;SDS011;55638;51.122;13.606;2022-07-23T04:11:05;2.33;;;2.13;;
68655;SDS011;55638;51.122;13.606;2022-07-23T04:12:37;2.60;;;2.40;;
68655;SDS011;55638;51.122;13.606;2022-07-23T04:14:09;2.58;;;2.38;;
68655;SDS011;55638;51.122;13.606;2022-07-23T04:15:40;2.65;;;2.45;;
68655;SDS011;55638;51.122;13.606;2022-07-23T04:17:12;2.60;;;2.40;;
68655;SDS011;55638;51.122;13.606;2022-07-23T04:18:45;2.80;;;2.60;;
68655;SDS011;55638;51.122;13.606;2022-07-23T04:20:20;2.60;;;2.40;;
68655;SDS011;55638;51.122;13.606;2022-07-23T04:21:58;2.95;;;2.65;;
68655;SDS011;55638;51.122;13.606;2022-07-23T04:23:30;2.92;;;2.70;;
68655;SDS011;55638;51.122;13.606;2022-07-23T04:25:02;3.05;;;2.40;;
68655;SDS011;55638;51.122;13.606;2022-07-23T04:26:35;2.70;;;2.50;;
68655;SDS011;55638;51.122;13.606;2022-07-23T04:28:06;2.60;;;2.40;;
68655;SDS011;55638;51.122;13.606;2022-07-23T04:29:38;2.90;;;2.70;;
68655;SDS011;55638;51.122;13.606;2022-07-23T04:31:10;4.40;;;2.75;;
68655;SDS011;55638;51.122;13.606;2022-07-23T04:32:43;2.80;;;2.50;;
68655;SDS011;55638;51.122;13.606;2022-07-23T04:34:23;2.78;;;2.58;;
68655;SDS011;55638;51.122;13.606;2022-07-23T04:35:58;4.15;;;2.30;;
68655;SDS011;55638;51.122;13.606;2022-07-23T04:37:30;2.70;;;2.50;;
68655;SDS011;55638;51.122;13.606;2022-07-23T04:39:01;2.55;;;2.35;;
68655;SDS011;55638;51.122;13.606;2022-07-23T04:40:34;2.85;;;2.50;;
68655;SDS011;55638;51.122;13.606;2022-07-23T04:42:06;2.17;;;1.98;;
68655;SDS011;55638;51.122;13.606;2022-07-23T04:43:38;2.50;;;2.35;;
68655;SDS011;55638;51.122;13.606;2022-07-23T04:45:09;2.88;;;2.67;;
68655;SDS011;55638;51.122;13.606;2022-07-23T04:46:44;4.00;;;2.70;;
68655;SDS011;55638;51.122;13.606;2022-07-23T04:48:16;2.63;;;2.42;;
68655;SDS011;55638;51.122;13.606;2022-07-23T04:49:49;2.60;;;2.40;;
68655;SDS011;55638;51.122;13.606;2022-07-23T04:51:20;2.80;;;2.55;;
68655;SDS011;55638;51.122;13.606;2022-07-23T04:52:52;2.88;;;2.67;;
68655;SDS011;55638;51.122;13.606;2022-07-23T04:54:24;2.42;;;2.22;;
68655;SDS011;55638;51.122;13.606;2022-07-23T04:55:56;2.92;;;2.28;;
68655;SDS011;55638;51.122;13.606;2022-07-23T04:57:27;2.70;;;2.50;;
68655;SDS011;55638;51.122;13.606;2022-07-23T04:58:59;2.55;;;2.35;;
68655;SDS011;55638;51.122;13.606;2022-07-23T05:00:32;2.10;;;2.00;;
68655;SDS011;55638;51.122;13.606;2022-07-23T05:02:04;2.00;;;1.90;;
68655;SDS011;55638;51.122;13.606;2022-07-23T05:03:36;2.53;;;2.33;;
68655;SDS011;55638;51.122;13.606;2022-07-23T05:05:08;2.13;;;2.00;;
68655;SDS011;55638;51.122;13.606;2022-07-23T05:06:40;2.40;;;2.20;;
68655;SDS011;55638;51.122;13.606;2022-07-23T05:08:11;2.38;;;2.17;;
68655;SDS011;55638;51.122;13.606;2022-07-23T05:09:44;2.60;;;2.40;;
68655;SDS011;55638;51.122;13.606;2022-07-23T05:11:16;2.40;;;2.20;;
68655;SDS011;55638;51.122;13.606;2022-07-23T05:12:48;2.65;;;2.17;;
68655;SDS011;55638;51.122;13.606;2022-07-23T05:14:19;2.40;;;2.20;;
68655;SDS011;55638;51.122;13.606;2022-07-23T05:15:51;2.80;;;2.60;;
68655;SDS011;55638;51.122;13.606;2022-07-23T05:17:23;2.97;;;2.67;;
68655;SDS011;55638;51.122;13.606;2022-07-23T05:18:55;3.05;;;2.20;;
68655;SDS011;55638;51.122;13.606;2022-07-23T05:20:27;2.72;;;2.53;;
68655;SDS011;55638;51.122;13.606;2022-07-23T05:21:59;2.53;;;2.33;;
68655;SDS011;55638;51.122;13.606;2022-07-23T05:23:31;2.65;;;2.45;;
68655;SDS011;55638;51.122;13.606;2022-07-23T05:25:02;2.65;;;2.45;;
68655;SDS011;55638;51.122;13.606;2022-07-23T05:26:36;4.18;;;2.55;;
68655;SDS011;55638;51.122;13.606;2022-07-23T05:28:08;2.47;;;2.28;;
68655;SDS011;55638;51.122;13.606;2022-07-23T05:29:40;2.47;;;2.28;;
68655;SDS011;55638;51.122;13.606;2022-07-23T05:31:11;2.75;;;2.35;;
68655;SDS011;55638;51.122;13.606;2022-07-23T05:32:43;2.80;;;2.30;;
68655;SDS011;55638;51.122;13.606;2022-07-23T05:34:19;2.47;;;2.20;;
68655;SDS011;55638;51.122;13.606;2022-07-23T05:35:51;2.40;;;2.20;;
68655;SDS011;55638;51.122;13.606;2022-07-23T05:37:33;2.88;;;2.67;;
68655;SDS011;55638;51.122;13.606;2022-07-23T05:39:05;3.00;;;2.70;;
68655;SDS011;55638;51.122;13.606;2022-07-23T05:40:40;3.22;;;2.92;;
68655;SDS011;55638;51.122;13.606;2022-07-23T05:42:12;3.38;;;3.10;;
68655;SDS011;55638;51.122;13.606;2022-07-23T05:43:43;3.80;;;3.10;;
68655;SDS011;55638;51.122;13.606;2022-07-23T05:45:17;3.50;;;3.20;;
68655;SDS011;55638;51.122;13.606;2022-07-23T05:46:50;3.45;;;3.15;;
68655;SDS011;55638;51.122;13.606;2022-07-23T05:48:25;3.75;;;3.45;;
68655;SDS011;55638;51.122;13.606;2022-07-23T05:50:20;3.92;;;3.53;;
68655;SDS011;55638;51.122;13.606;2022-07-23T05:51:57;4.10;;;3.40;;
68655;SDS011;55638;51.122;13.606;2022-07-23T05:53:50;5.65;;;3.80;;
68655;SDS011;55638;51.122;13.606;2022-07-23T05:55:25;4.07;;;3.70;;
68655;SDS011;55638;51.122;13.606;2022-07-23T05:56:56;4.80;;;4.03;;
68655;SDS011;55638;51.122;13.606;2022-07-23T05:58:28;4.15;;;3.75;;
68655;SDS011;55638;51.122;13.606;2022-07-23T06:00:01;4.63;;;4.03;;
68655;SDS011;55638;51.122;13.606;2022-07-23T06:01:44;4.55;;;3.67;;
68655;SDS011;55638;51.122;13.606;2022-07-23T06:03:16;4.68;;;4.28;;
68655;SDS011;55638;51.122;13.606;2022-07-23T06:04:48;4.57;;;3.65;;
68655;SDS011;55638;51.122;13.606;2022-07-23T06:06:28;4.43;;;4.03;;
68655;SDS011;55638;51.122;13.606;2022-07-23T06:08:00;4.97;;;4.50;;
68655;SDS011;55638;51.122;13.606;2022-07-23T06:09:33;4.57;;;4.18;;
68655;SDS011;55638;51.122;13.606;2022-07-23T06:11:05;4.53;;;4.13;;
68655;SDS011;55638;51.122;13.606;2022-07-23T06:12:36;4.78;;;4.38;;
68655;SDS011;55638;51.122;13.606;2022-07-23T06:14:09;5.65;;;4.70;;
68655;SDS011;55638;51.122;13.606;2022-07-23T06:15:51;4.47;;;4.07;;
68655;SDS011;55638;51.122;13.606;2022-07-23T06:17:23;5.70;;;3.97;;
68655;SDS011;55638;51.122;13.606;2022-07-23T06:18:56;4.82;;;4.25;;
68655;SDS011;55638;51.122;13.606;2022-07-23T06:20:31;4.80;;;4.30;;
68655;SDS011;55638;51.122;13.606;2022-07-23T06:22:02;5.13;;;4.18;;
68655;SDS011;55638;51.122;13.606;2022-07-23T06:23:34;4.38;;;3.97;;
68655;SDS011;55638;51.122;13.606;2022-07-23T06:25:06;4.90;;;4.40;;
68655;SDS011;55638;51.122;13.606;2022-07-23T06:26:49;4.20;;;3.78;;
68655;SDS011;55638;51.122;13.606;2022-07-23T06:28:21;4.80;;;4.25;;
68655;SDS011;55638;51.122;13.606;2022-07-23T06:29:53;4.78;;;4.10;;
68655;SDS011;55638;51.122;13.606;2022-07-23T06:31:24;4.70;;;4.30;;
68655;SDS011;55638;51.122;13.606;2022-07-23T06:32:56;5.90;;;4.43;;
68655;SDS011;55638;51.122;13.606;2022-07-23T06:34:28;4.53;;;4.10;;
68655;SDS011;55638;51.122;13.606;2022-07-23T06:36:00;4.55;;;3.85;;
68655;SDS011;55638;51.122;13.606;2022-07-23T06:37:32;4.53;;;4.10;;
68655;SDS011;55638;51.122;13.606;2022-07-23T06:39:05;4.32;;;3.92;;
68655;SDS011;55638;51.122;13.606;2022-07-23T06:40:39;3.90;;;3.60;;
68655;SDS011;55638;51.122;13.606;2022-07-23T06:42:11;4.47;;;4.05;;
68655;SDS011;55638;51.122;13.606;2022-07-23T06:43:47;4.45;;;4.05;;
68655;SDS011;55638;51.122;13.606;2022-07-23T06:45:20;4.18;;;3.63;;
68655;SDS011;55638;51.122;13.606;2022-07-23T06:46:52;4.47;;;4.07;;
68655;SDS011;55638;51.122;13.606;2022-07-23T06:48:24;4.22;;;3.85;;
68655;SDS011;55638;51.122;13.606;2022-07-23T06:49:56;4.68;;;3.67;;
68655;SDS011;55638;51.122;13.606;2022-07-23T06:51:29;4.35;;;3.95;;
68655;SDS011;55638;51.122;13.606;2022-07-23T06:53:01;3.60;;;3.30;;
68655;SDS011;55638;51.122;13.606;2022-07-23T06:54:33;5.97;;;3.97;;
68655;SDS011;55638;51.122;13.606;2022-07-23T06:56:05;3.72;;;3.42;;
68655;SDS011;55638;51.122;13.606;2022-07-23T06:57:37;4.78;;;3.80;;
68655;SDS011;55638;51.122;13.606;2022-07-23T06:59:10;3.92;;;3.50;;
68655;SDS011;55638;51.122;13.606;2022-07-23T07:00:42;3.90;;;3.50;;
68655;SDS011;55638;51.122;13.606;2022-07-23T07:02:13;4.95;;;3.75;;
68655;SDS011;55638;51.122;13.606;2022-07-23T07:03:45;3.97;;;3.30;;
68655;SDS011;55638;51.122;13.606;2022-07-23T07:05:17;3.50;;;3.20;;
68655;SDS011;55638;51.122;13.606;2022-07-23T07:06:49;3.72;;;3.40;;
68655;SDS011;55638;51.122;13.606;2022-07-23T07:08:21;3.83;;;3.53;;
68655;SDS011;55638;51.122;13.606;2022-07-23T07:09:52;3.65;;;3.35;;
68655;SDS011;55638;51.122;13.606;2022-07-23T07:11:24;3.50;;;3.20;;
68655;SDS011;55638;51.122;13.606;2022-07-23T07:12:56;3.47;;;3.17;;
68655;SDS011;55638;51.122;13.606;2022-07-23T07:14:28;3.50;;;3.20;;
68655;SDS011;55638;51.122;13.606;2022-07-23T07:15:59;4.13;;;3.38;;
68655;SDS011;55638;51.122;13.606;2022-07-23T07:17:31;5.20;;;3.10;;
68655;SDS011;55638;51.122;13.606;2022-07-23T07:19:03;3.20;;;3.00;;
68655;SDS011;55638;51.122;13.606;2022-07-23T07:20:35;3.35;;;2.92;;
68655;SDS011;55638;51.122;13.606;2022-07-23T07:22:07;4.00;;;2.83;;
68655;SDS011;55638;51.122;13.606;2022-07-23T07:23:38;3.20;;;2.90;;
68655;SDS011;55638;51.122;13.606;2022-07-23T07:25:10;3.20;;;2.90;;
68655;SDS011;55638;51.122;13.606;2022-07-23T07:26:42;3.15;;;2.95;;
68655;SDS011;55638;51.122;13.606;2022-07-23T07:28:13;2.72;;;2.53;;
68655;SDS011;55638;51.122;13.606;2022-07-23T07:29:45;2.97;;;2.60;;
68655;SDS011;55638;51.122;13.606;2022-07-23T07:31:17;2.70;;;2.50;;
68655;SDS011;55638;51.122;13.606;2022-07-23T07:32:48;2.78;;;2.58;;
68655;SDS011;55638;51.122;13.606;2022-07-23T07:34:28;3.25;;;2.83;;
68655;SDS011;55638;51.122;13.606;2022-07-23T07:36:00;3.03;;;2.70;;
68655;SDS011;55638;51.122;13.606;2022-07-23T07:37:32;3.13;;;2.92;;
68655;SDS011;55638;51.122;13.606;2022-07-23T07:39:04;2.70;;;2.50;;
68655;SDS011;55638;51.122;13.606;2022-07-23T07:40:36;3.20;;;2.90;;
68655;SDS011;55638;51.122;13.606;2022-07-23T07:42:08;2.70;;;2.50;;
68655;SDS011;55638;51.122;13.606;2022-07-23T07:43:39;3.55;;;2.72;;
68655;SDS011;55638;51.122;13.606;2022-07-23T07:45:11;3.15;;;2.60;;
68655;SDS011;55638;51.122;13.606;2022-07-23T07:46:43;3.35;;;2.65;;
68655;SDS011;55638;51.122;13.606;2022-07-23T07:48:14;3.05;;;2.80;;
68655;SDS011;55638;51.122;13.606;2022-07-23T07:49:46;2.60;;;2.40;;
68655;SDS011;55638;51.122;13.606;2022-07-23T07:51:18;3.60;;;2.50;;
68655;SDS011;55638;51.122;13.606;2022-07-23T07:52:51;3.15;;;2.80;;
68655;SDS011;55638;51.122;13.606;2022-07-23T07:54:23;2.55;;;2.35;;
68655;SDS011;55638;51.122;13.606;2022-07-23T07:55:54;2.97;;;2.78;;
68655;SDS011;55638;51.122;13.606;2022-07-23T07:57:26;4.13;;;2.60;;
68655;SDS011;55638;51.122;13.606;2022-07-23T07:59:02;3.30;;;3.00;;
68655;SDS011;55638;51.122;13.606;2022-07-23T08:00:34;2.75;;;2.47;;
68655;SDS011;55638;51.122;13.606;2022-07-23T08:02:06;3.17;;;2.65;;
68655;SDS011;55638;51.122;13.606;2022-07-23T08:03:38;2.88;;;2.60;;
68655;SDS011;55638;51.122;13.606;2022-07-23T08:05:10;2.97;;;2.67;;
68655;SDS011;55638;51.122;13.606;2022-07-23T08:06:42;2.53;;;2.33;;
68655;SDS011;55638;51.122;13.606;2022-07-23T08:08:13;3.00;;;2.65;;
68655;SDS011;55638;51.122;13.606;2022-07-23T08:09:46;7.18;;;2.83;;
68655;SDS011;55638;51.122;13.606;2022-07-23T08:11:17;5.07;;;2.83;;
68655;SDS011;55638;51.122;13.606;2022-07-23T08:12:50;2.70;;;2.50;;
68655;SDS011;55638;51.122;13.606;2022-07-23T08:14:24;2.90;;;2.58;;
68655;SDS011;55638;51.122;13.606;2022-07-23T08:15:56;2.60;;;2.40;;
68655;SDS011;55638;51.122;13.606;2022-07-23T08:17:27;2.75;;;2.55;;
68655;SDS011;55638;51.122;13.606;2022-07-23T08:18:59;2.40;;;2.20;;
68655;SDS011;55638;51.122;13.606;2022-07-23T08:20:31;3.28;;;2.90;;
68655;SDS011;55638;51.122;13.606;2022-07-23T08:22:02;3.10;;;2.78;;
68655;SDS011;55638;51.122;13.606;2022-07-23T08:23:34;2.90;;;2.60;;
68655;SDS011;55638;51.122;13.606;2022-07-23T08:25:06;3.67;;;3.35;;
68655;SDS011;55638;51.122;13.606;2022-07-23T08:26:37;3.47;;;3.15;;
68655;SDS011;55638;51.122;13.606;2022-07-23T08:28:10;2.88;;;2.67;;
68655;SDS011;55638;51.122;13.606;2022-07-23T08:29:43;3.40;;;3.10;;
68655;SDS011;55638;51.122;13.606;2022-07-23T08:31:15;3.20;;;2.92;;
68655;SDS011;55638;51.122;13.606;2022-07-23T08:32:50;3.53;;;3.22;;
68655;SDS011;55638;51.122;13.606;2022-07-23T08:34:21;3.42;;;3.10;;
68655;SDS011;55638;51.122;13.606;2022-07-23T08:35:53;3.00;;;2.80;;
68655;SDS011;55638;51.122;13.606;2022-07-23T08:37:25;3.42;;;3.13;;
68655;SDS011;55638;51.122;13.606;2022-07-23T08:38:56;3.17;;;2.63;;
68655;SDS011;55638;51.122;13.606;2022-07-23T08:40:30;2.63;;;2.42;;
68655;SDS011;55638;51.122;13.606;2022-07-23T08:42:03;2.92;;;2.72;;
68655;SDS011;55638;51.122;13.606;2022-07-23T08:43:35;3.17;;;2.97;;
68655;SDS011;55638;51.122;13.606;2022-07-23T08:45:07;2.65;;;2.45;;
68655;SDS011;55638;51.122;13.606;2022-07-23T08:46:40;3.20;;;2.90;;
68655;SDS011;55638;51.122;13.606;2022-07-23T08:48:15;3.10;;;2.80;;
68655;SDS011;55638;51.122;13.606;2022-07-23T08:49:49;3.28;;;3.08;;
68655;SDS011;55638;51.122;13.606;2022-07-23T08:51:21;2.97;;;2.78;;
68655;SDS011;55638;51.122;13.606;2022-07-23T08:52:59;3.15;;;2.95;;
68655;SDS011;55638;51.122;13.606;2022-07-23T08:54:32;2.80;;;2.60;;
68655;SDS011;55638;51.122;13.606;2022-07-23T08:56:06;3.15;;;2.92;;
68655;SDS011;55638;51.122;13.606;2022-07-23T08:57:40;3.00;;;2.80;;
68655;SDS011;55638;51.122;13.606;2022-07-23T08:59:12;3.47;;;2.92;;
68655;SDS011;55638;51.122;13.606;2022-07-23T09:00:44;2.80;;;2.60;;
68655;SDS011;55638;51.122;13.606;2022-07-23T09:02:17;3.42;;;3.13;;
68655;SDS011;55638;51.122;13.606;2022-07-23T09:03:49;3.35;;;3.05;;
68655;SDS011;55638;51.122;13.606;2022-07-23T09:05:20;3.30;;;3.00;;
68655;SDS011;55638;51.122;13.606;2022-07-23T09:06:52;3.30;;;3.10;;
68655;SDS011;55638;51.122;13.606;2022-07-23T09:08:25;3.00;;;2.70;;
68655;SDS011;55638;51.122;13.606;2022-07-23T09:10:08;4.22;;;2.70;;